createdAt,value
2023-02-23T14:27:41.162Z,25.00
2023-02-23T14:31:34.432Z,25.00
2023-02-23T14:35:33.259Z,0.00
2023-02-23T14:39:33.197Z,0.00
2023-02-23T14:43:33.279Z,25.00
2023-02-23T14:47:33.459Z,25.00
2023-02-23T14:51:33.617Z,32.51
2023-02-23T14:55:33.826Z,24.35
2023-02-23T14:59:34.001Z,25.27
2023-02-23T15:03:34.191Z,25.00
2023-02-23T15:07:34.145Z,25.72
2023-02-23T15:11:34.116Z,26.00
2023-02-23T15:15:34.531Z,27.28
2023-02-23T15:19:34.040Z,25.28
2023-02-23T15:23:34.086Z,24.05
2023-02-23T15:27:36.184Z,26.31
2023-02-23T15:31:34.057Z,26.07
2023-02-23T15:35:33.900Z,25.10
2023-02-23T15:39:33.850Z,25.21
2023-02-23T15:43:33.817Z,28.54
2023-02-23T15:47:33.806Z,28.95
2023-02-23T15:51:33.794Z,25.42
2023-02-23T15:55:33.712Z,27.67
2023-02-23T15:59:33.693Z,33.33
2023-02-23T16:03:33.733Z,30.53
2023-02-23T16:07:33.705Z,32.75
2023-02-23T16:11:33.706Z,32.34
2023-02-23T16:15:33.726Z,32.53
2023-02-23T16:19:33.718Z,42.79
2023-02-23T16:23:34.546Z,39.13
2023-02-23T16:27:33.744Z,31.50
2023-02-23T16:31:33.853Z,25.00
2023-02-23T16:35:33.821Z,34.19
2023-02-23T16:39:33.881Z,25.46
2023-02-23T16:43:33.959Z,33.42
2023-02-23T16:47:34.046Z,28.54
2023-02-23T16:51:34.080Z,29.57
2023-02-23T16:55:34.119Z,36.86
2023-02-23T16:59:34.161Z,39.41
2023-02-23T17:03:40.794Z,35.63
2023-02-23T17:07:35.173Z,34.66
2023-02-23T17:11:34.141Z,42.22
2023-02-23T17:15:34.111Z,41.23
2023-02-23T17:19:34.059Z,40.40
2023-02-23T17:23:34.035Z,40.09
2023-02-23T17:27:33.992Z,39.05
2023-02-23T17:31:34.149Z,38.34
2023-02-23T17:35:34.091Z,36.33
2023-02-23T17:39:34.145Z,34.76
2023-02-23T17:43:34.200Z,34.18
2023-02-23T17:47:34.264Z,35.08
2023-02-23T17:51:34.337Z,32.86
2023-02-23T17:55:34.367Z,37.53
2023-02-23T17:59:34.469Z,35.11
2023-02-23T18:03:34.641Z,33.60
2023-02-23T18:07:34.553Z,39.47
2023-02-23T18:11:34.682Z,29.93
2023-02-23T18:15:34.718Z,31.75
2023-02-23T18:19:34.832Z,32.87
2023-02-23T18:23:34.852Z,31.60
2023-02-23T18:27:34.949Z,28.54
2023-02-23T18:31:35.224Z,27.42
2023-02-23T18:35:35.134Z,30.65
2023-02-23T18:39:35.185Z,30.12
2023-02-23T18:43:35.273Z,28.38
2023-02-23T18:47:35.424Z,27.86
2023-02-23T18:51:35.503Z,30.08
2023-02-23T18:55:35.626Z,27.67
2023-02-23T18:59:35.721Z,26.04
2023-02-23T19:03:35.830Z,28.13
2023-02-23T19:07:35.947Z,27.27
2023-02-23T19:11:36.070Z,27.65
2023-02-23T19:15:36.177Z,30.31
2023-02-23T19:19:36.285Z,27.81
2023-02-23T19:23:36.411Z,27.92
2023-02-23T19:27:36.545Z,26.88
2023-02-23T19:31:36.891Z,32.28
2023-02-23T19:35:36.806Z,31.98
2023-02-23T19:39:36.945Z,31.06
2023-02-23T19:43:37.063Z,30.06
2023-02-23T19:47:37.226Z,27.16
2023-02-23T19:51:37.399Z,32.71
2023-02-23T19:55:37.544Z,27.44
2023-02-23T19:59:37.710Z,32.71
2023-02-23T20:03:37.855Z,28.16
2023-02-23T20:07:38.023Z,26.35
2023-02-23T20:11:38.171Z,30.04
2023-02-23T20:15:38.324Z,27.34
2023-02-23T20:19:38.506Z,28.30
2023-02-23T20:23:38.668Z,27.98
2023-02-23T20:27:38.805Z,32.23
2023-02-23T20:31:39.125Z,31.10
2023-02-23T20:35:39.147Z,25.00
2023-02-23T20:39:39.313Z,30.41
2023-02-23T20:43:39.456Z,34.92
2023-02-23T20:47:39.630Z,27.89
2023-02-23T20:51:39.849Z,25.23
2023-02-23T20:55:40.041Z,31.49
2023-02-23T20:59:40.226Z,27.85
2023-02-23T21:03:40.438Z,31.53
2023-02-23T21:07:40.636Z,27.76
2023-02-23T21:11:40.804Z,31.83
2023-02-23T21:15:41.072Z,27.64
2023-02-23T21:19:41.194Z,29.36
2023-02-23T21:23:41.426Z,31.00
2023-02-23T21:27:41.654Z,30.45
2023-02-23T21:31:42.177Z,30.48
2023-02-23T21:35:42.088Z,31.66
2023-02-23T21:39:42.256Z,30.85
2023-02-23T21:43:42.534Z,33.21
2023-02-23T21:47:42.456Z,32.32
2023-02-23T21:51:42.421Z,31.32
2023-02-23T21:55:42.373Z,31.67
2023-02-23T21:59:42.367Z,31.30
2023-02-23T22:03:42.294Z,31.37
2023-02-23T22:07:42.298Z,28.76
2023-02-23T22:11:42.226Z,29.74
2023-02-23T22:15:42.188Z,31.24
2023-02-23T22:19:42.169Z,29.69
2023-02-23T22:23:42.132Z,30.74
2023-02-23T22:27:42.245Z,32.67
2023-02-23T22:31:42.384Z,29.85
2023-02-23T22:35:42.186Z,33.30
2023-02-23T22:39:42.163Z,32.58
2023-02-23T22:43:42.110Z,34.07
2023-02-23T22:47:42.075Z,33.73
2023-02-23T22:51:42.027Z,34.58
2023-02-23T22:55:42.059Z,31.79
2023-02-23T22:59:41.953Z,33.60
2023-02-23T23:03:42.068Z,36.57
2023-02-23T23:07:41.934Z,33.54
2023-02-23T23:11:41.910Z,31.84
2023-02-23T23:15:41.871Z,34.97
2023-02-23T23:19:41.847Z,34.47
2023-02-23T23:23:41.766Z,30.90
2023-02-23T23:27:41.757Z,34.23
2023-02-23T23:31:41.879Z,32.87
2023-02-23T23:35:41.704Z,33.31
2023-02-23T23:39:41.647Z,34.60
2023-02-23T23:43:41.810Z,35.30
2023-02-23T23:47:41.810Z,33.26
2023-02-23T23:51:41.723Z,32.46
2023-02-23T23:55:41.670Z,34.17
2023-02-23T23:59:41.662Z,35.47
